Time;durP1;ratioP1;P1;durP2;ratioP2;P2;SDS_P1;SDS_P2;PMS_P1;PMS_P2;Temp;Humidity;BMP_temperature;BMP_pressure;BME280_temperature;BME280_humidity;BME280_pressure;Samples;Min_cycle;Max_cycle;Signal;HPM_P1;HPM_P2
2021/09/25 00:01:51;;;;;;;11.37;7.43;;;14.10;99.90;;;;;;5068001;28;21156;-58
2021/09/25 00:04:18;;;;;;;11.77;7.70;;;14.10;99.90;;;;;;5073743;28;20451;-58
2021/09/25 00:06:45;;;;;;;10.67;7.80;;;14.10;99.90;;;;;;5061394;28;20467;-58
2021/09/25 00:09:12;;;;;;;10.57;7.77;;;14.10;99.90;;;;;;5055660;28;20509;-58
2021/09/25 00:11:39;;;;;;;8.73;6.87;;;14.10;99.90;;;;;;5054721;28;20455;-58
2021/09/25 00:14:07;;;;;;;8.80;7.00;;;14.10;99.90;;;;;;5054711;28;20451;-58
2021/09/25 00:16:34;;;;;;;11.20;8.30;;;14.00;99.90;;;;;;5054410;28;20537;-58
2021/09/25 00:19:02;;;;;;;11.70;8.70;;;14.00;99.90;;;;;;5071016;28;20454;-58
2021/09/25 00:21:30;;;;;;;9.40;7.50;;;14.00;99.90;;;;;;5071555;28;20470;-58
2021/09/25 00:23:58;;;;;;;11.73;9.20;;;14.00;99.90;;;;;;5074379;28;20508;-57
2021/09/25 00:26:26;;;;;;;12.13;8.53;;;14.00;99.90;;;;;;5074452;28;20513;-58
2021/09/25 00:28:54;;;;;;;12.10;9.23;;;13.90;99.90;;;;;;5074464;28;20560;-58
2021/09/25 00:31:22;;;;;;;11.50;8.30;;;13.90;99.90;;;;;;5074143;28;20546;-58
2021/09/25 00:33:49;;;;;;;10.47;8.30;;;13.90;99.90;;;;;;5071772;28;20450;-58
2021/09/25 00:36:16;;;;;;;10.60;8.27;;;13.90;99.90;;;;;;5068293;28;20542;-58
2021/09/25 00:38:43;;;;;;;9.63;8.40;;;13.90;99.90;;;;;;5054160;28;20945;-58
2021/09/25 00:41:10;;;;;;;11.10;8.30;;;13.90;99.90;;;;;;5054032;28;20866;-58
2021/09/25 00:43:37;;;;;;;13.00;8.83;;;13.70;99.90;;;;;;5054046;28;20999;-58
2021/09/25 00:46:04;;;;;;;15.23;10.07;;;13.50;99.90;;;;;;5057511;28;20470;-58
2021/09/25 00:48:33;;;;;;;14.03;8.90;;;13.50;99.90;;;;;;5070139;28;20504;-58
2021/09/25 00:51:00;;;;;;;10.33;8.57;;;13.50;99.90;;;;;;5065455;28;20505;-58
2021/09/25 00:53:26;;;;;;;16.90;10.60;;;13.50;99.90;;;;;;5082071;28;20443;-58
2021/09/25 00:55:54;;;;;;;14.60;8.97;;;13.50;99.90;;;;;;5066035;28;20506;-58
2021/09/25 00:58:21;;;;;;;14.87;10.13;;;13.50;99.90;;;;;;5061851;28;20503;-58
2021/09/25 01:00:48;;;;;;;17.73;10.87;;;13.50;99.90;;;;;;5064642;28;20560;-58
2021/09/25 01:03:16;;;;;;;15.20;10.30;;;13.40;99.90;;;;;;5073868;28;20450;-58
2021/09/25 01:05:45;;;;;;;12.90;9.73;;;13.40;99.90;;;;;;5060564;28;20884;-58
2021/09/25 01:08:12;;;;;;;12.40;9.37;;;13.20;99.90;;;;;;5073617;28;20565;-58
2021/09/25 01:10:39;;;;;;;10.70;8.60;;;13.20;99.90;;;;;;5073379;28;20443;-58
2021/09/25 01:13:06;;;;;;;13.13;10.23;;;13.30;99.90;;;;;;5072463;28;20439;-58
2021/09/25 01:15:34;;;;;;;13.77;9.67;;;13.10;99.90;;;;;;5058313;28;20464;-57
2021/09/25 01:18:01;;;;;;;12.60;8.97;;;13.20;99.90;;;;;;5060138;28;20529;-57
2021/09/25 01:20:28;;;;;;;13.47;9.30;;;13.20;99.90;;;;;;5054185;28;20455;-58
2021/09/25 01:22:56;;;;;;;11.90;8.70;;;13.10;99.90;;;;;;5057114;28;20451;-58
2021/09/25 01:25:25;;;;;;;12.10;8.67;;;13.10;99.90;;;;;;5073263;28;21157;-58
2021/09/25 01:27:52;;;;;;;11.67;8.80;;;13.20;99.90;;;;;;5072817;28;21151;-58
2021/09/25 01:30:22;;;;;;;12.73;9.30;;;13.10;99.90;;;;;;5072909;28;20451;-58
2021/09/25 01:32:50;;;;;;;12.70;9.70;;;13.10;99.90;;;;;;5071396;28;20948;-57
2021/09/25 01:35:22;;;;;;;14.27;9.00;;;13.00;99.90;;;;;;5073064;28;20516;-58
2021/09/25 01:37:52;;;;;;;11.90;8.70;;;12.90;99.90;;;;;;5059407;28;20515;-58
2021/09/25 01:40:23;;;;;;;14.23;9.60;;;12.80;99.90;;;;;;5052847;28;20513;-58
2021/09/25 01:42:50;;;;;;;12.20;9.20;;;12.90;99.90;;;;;;5067342;28;20501;-58
2021/09/25 01:45:20;;;;;;;10.53;8.03;;;12.90;99.90;;;;;;5053134;28;20517;-58
2021/09/25 01:47:47;;;;;;;13.93;9.07;;;12.90;99.90;;;;;;5065577;28;20504;-58
2021/09/25 01:50:19;;;;;;;14.23;8.63;;;12.90;99.90;;;;;;5069157;28;20451;-58
2021/09/25 01:52:46;;;;;;;8.70;7.03;;;12.90;99.90;;;;;;5072772;28;20447;-58
2021/09/25 01:55:13;;;;;;;9.97;8.10;;;12.90;99.90;;;;;;5072370;28;20532;-58
2021/09/25 01:57:42;;;;;;;10.90;8.70;;;12.90;99.90;;;;;;5056470;28;20479;-58
2021/09/25 02:00:10;;;;;;;9.83;8.50;;;12.80;99.90;;;;;;5052741;28;20443;-58
2021/09/25 02:02:38;;;;;;;10.30;7.80;;;12.80;99.90;;;;;;5059903;28;20452;-58
2021/09/25 02:05:06;;;;;;;10.93;7.87;;;12.80;99.90;;;;;;5061613;28;20563;-58
2021/09/25 02:07:33;;;;;;;11.73;7.50;;;12.80;99.90;;;;;;5068061;28;20451;-58
2021/09/25 02:10:01;;;;;;;10.47;8.40;;;12.80;99.90;;;;;;5072552;28;20442;-58
2021/09/25 02:12:28;;;;;;;11.47;8.33;;;12.80;99.90;;;;;;5072321;28;20883;-58
2021/09/25 02:14:56;;;;;;;13.37;8.50;;;12.70;99.90;;;;;;5070260;28;20496;-58
2021/09/25 02:17:23;;;;;;;12.47;8.70;;;12.80;99.90;;;;;;5072180;28;20555;-57
2021/09/25 02:19:50;;;;;;;13.13;8.40;;;12.60;99.90;;;;;;5056121;28;20452;-58
2021/09/25 02:22:17;;;;;;;12.30;9.33;;;12.50;99.90;;;;;;5052256;28;20455;-58
2021/09/25 02:24:44;;;;;;;9.90;7.90;;;12.50;99.90;;;;;;5052170;28;20478;-58
2021/09/25 02:27:11;;;;;;;11.83;8.40;;;12.60;99.90;;;;;;5051862;28;20942;-58
2021/09/25 02:29:39;;;;;;;11.20;7.60;;;12.60;99.90;;;;;;5060746;28;20488;-57
2021/09/25 02:32:07;;;;;;;11.30;9.30;;;12.60;99.90;;;;;;5069534;28;20450;-57
2021/09/25 02:34:35;;;;;;;12.63;9.70;;;12.60;99.90;;;;;;5052071;28;20510;-58
2021/09/25 02:37:02;;;;;;;10.57;8.50;;;12.60;99.90;;;;;;5060508;28;21057;-58
2021/09/25 02:39:30;;;;;;;10.33;8.07;;;12.50;99.90;;;;;;5072134;28;20516;-58
2021/09/25 02:41:58;;;;;;;12.30;8.87;;;12.60;99.90;;;;;;5071804;28;20447;-57
2021/09/25 02:44:25;;;;;;;11.27;8.87;;;12.50;99.90;;;;;;5058874;28;21030;-58
2021/09/25 02:46:52;;;;;;;11.20;8.07;;;12.60;99.90;;;;;;5058132;28;20516;-58
2021/09/25 02:49:22;;;;;;;16.50;7.37;;;12.50;99.90;;;;;;5064488;28;21018;-58
2021/09/25 02:51:50;;;;;;;11.20;8.33;;;12.50;99.90;;;;;;5071051;28;20447;-57
2021/09/25 02:54:17;;;;;;;10.13;8.00;;;12.50;99.90;;;;;;5067328;28;20965;-58
2021/09/25 02:56:44;;;;;;;9.53;7.90;;;12.50;99.90;;;;;;5051518;28;20537;-57
2021/09/25 02:59:11;;;;;;;12.30;9.03;;;12.50;99.90;;;;;;5051640;28;20876;-58
2021/09/25 03:01:38;;;;;;;10.60;7.80;;;12.50;99.90;;;;;;5053469;28;21003;-58
2021/09/25 03:04:05;;;;;;;13.00;9.23;;;12.50;99.90;;;;;;5051417;28;20460;-58
2021/09/25 03:06:33;;;;;;;13.13;8.80;;;12.50;99.90;;;;;;5051657;28;20475;-58
2021/09/25 03:09:00;;;;;;;12.67;8.90;;;12.40;99.90;;;;;;5051745;28;20501;-57
2021/09/25 03:11:27;;;;;;;10.07;8.00;;;12.40;99.90;;;;;;5051382;28;20451;-58
2021/09/25 03:13:54;;;;;;;10.83;8.43;;;12.30;99.90;;;;;;5051797;28;20452;-58
2021/09/25 03:16:21;;;;;;;10.33;7.80;;;12.20;99.90;;;;;;5051680;28;20479;-58
2021/09/25 03:18:48;;;;;;;10.57;8.10;;;12.20;99.90;;;;;;5066198;28;20531;-58
2021/09/25 03:21:15;;;;;;;11.80;7.97;;;12.30;99.90;;;;;;5070469;28;20450;-58
2021/09/25 03:23:43;;;;;;;7.87;6.73;;;12.30;99.90;;;;;;5069432;28;20503;-58
2021/09/25 03:26:10;;;;;;;12.47;8.73;;;12.30;99.90;;;;;;5051373;28;20471;-57
2021/09/25 03:28:37;;;;;;;9.53;7.50;;;12.20;99.90;;;;;;5052207;28;20505;-57
2021/09/25 03:31:04;;;;;;;10.93;7.37;;;12.20;99.90;;;;;;5051344;28;20452;-57
2021/09/25 03:33:31;;;;;;;9.90;7.07;;;12.20;99.90;;;;;;5062640;28;20496;-58
2021/09/25 03:35:58;;;;;;;9.97;7.67;;;12.20;99.90;;;;;;5071142;28;20892;-57
2021/09/25 03:38:27;;;;;;;10.03;7.67;;;12.20;99.90;;;;;;5071268;28;20535;-58
2021/09/25 03:40:56;;;;;;;11.97;7.30;;;12.20;99.90;;;;;;5055349;28;20517;-58
2021/09/25 03:43:23;;;;;;;9.73;7.87;;;12.10;99.90;;;;;;5056758;28;20871;-57
2021/09/25 03:45:50;;;;;;;10.80;8.30;;;12.20;99.90;;;;;;5057930;28;20478;-58
2021/09/25 03:48:17;;;;;;;11.60;8.13;;;12.10;99.90;;;;;;5056072;28;20501;-57
2021/09/25 03:50:44;;;;;;;11.20;8.30;;;12.20;99.90;;;;;;5063363;28;20496;-58
2021/09/25 03:53:11;;;;;;;14.27;8.77;;;12.20;99.90;;;;;;5075149;28;20508;-57
2021/09/25 03:55:38;;;;;;;11.13;8.10;;;11.90;99.90;;;;;;5069732;28;20479;-57
2021/09/25 03:58:06;;;;;;;12.50;9.20;;;11.90;99.90;;;;;;5067875;28;20479;-58
2021/09/25 04:00:33;;;;;;;11.63;7.60;;;11.90;99.90;;;;;;5054309;28;20447;-58
2021/09/25 04:03:00;;;;;;;9.60;8.50;;;12.00;99.90;;;;;;5055048;28;20447;-58
2021/09/25 04:05:27;;;;;;;11.20;8.43;;;12.00;99.90;;;;;;5054461;28;20468;-57
2021/09/25 04:07:54;;;;;;;9.93;8.10;;;12.00;99.90;;;;;;5053776;28;20853;-58
2021/09/25 04:10:21;;;;;;;13.03;9.03;;;12.00;99.90;;;;;;5053987;28;20460;-57
2021/09/25 04:12:48;;;;;;;11.30;8.70;;;11.90;99.90;;;;;;5053838;28;20456;-57
2021/09/25 04:15:16;;;;;;;12.93;8.40;;;11.90;99.90;;;;;;5053791;28;20471;-58
2021/09/25 04:17:43;;;;;;;10.30;7.50;;;11.90;99.90;;;;;;5054534;28;21053;-57
2021/09/25 04:20:11;;;;;;;11.50;8.67;;;12.00;99.90;;;;;;5053573;28;20448;-58
2021/09/25 04:22:38;;;;;;;8.33;7.07;;;11.90;99.90;;;;;;5054444;28;20444;-58
2021/09/25 04:25:06;;;;;;;12.57;8.07;;;12.00;99.90;;;;;;5053918;28;20528;-58
2021/09/25 04:27:33;;;;;;;10.27;8.30;;;12.00;99.90;;;;;;5054626;28;20520;-58
2021/09/25 04:30:02;;;;;;;12.00;8.80;;;11.80;99.90;;;;;;5054153;28;20953;-57
2021/09/25 04:32:30;;;;;;;15.83;8.93;;;11.70;99.90;;;;;;5054077;28;20451;-58
2021/09/25 04:34:57;;;;;;;11.77;8.53;;;11.80;99.90;;;;;;5066364;28;20495;-58
2021/09/25 04:37:24;;;;;;;13.30;9.70;;;11.70;99.90;;;;;;5055441;28;20549;-58
2021/09/25 04:39:51;;;;;;;15.03;10.33;;;11.80;99.90;;;;;;5074222;28;20555;-57
2021/09/25 04:42:18;;;;;;;17.73;10.97;;;11.90;99.90;;;;;;5066869;28;20444;-57
2021/09/25 04:44:45;;;;;;;17.83;11.63;;;11.80;99.90;;;;;;5065210;28;20505;-57
2021/09/25 04:47:12;;;;;;;15.30;10.80;;;11.80;99.90;;;;;;5059983;28;20442;-57
2021/09/25 04:49:40;;;;;;;16.23;10.20;;;11.80;99.90;;;;;;5061686;28;20496;-58
2021/09/25 04:52:08;;;;;;;16.40;8.60;;;11.70;99.90;;;;;;5067675;28;21027;-58
2021/09/25 04:54:35;;;;;;;12.17;7.60;;;11.80;99.90;;;;;;5067798;28;20511;-58
2021/09/25 04:57:02;;;;;;;11.60;7.67;;;11.80;99.90;;;;;;5073614;28;20474;-58
2021/09/25 04:59:29;;;;;;;11.30;7.60;;;11.70;99.90;;;;;;5073921;28;20443;-58
2021/09/25 05:01:56;;;;;;;12.40;6.70;;;11.80;99.90;;;;;;5073549;28;20508;-58
2021/09/25 05:04:23;;;;;;;9.07;6.67;;;11.80;99.90;;;;;;5073622;28;20442;-57
2021/09/25 05:06:51;;;;;;;9.87;7.20;;;11.90;99.90;;;;;;5057446;28;20536;-57
2021/09/25 05:09:22;;;;;;;8.03;6.10;;;11.80;99.90;;;;;;5059365;28;20862;-58
2021/09/25 05:11:49;;;;;;;9.03;6.20;;;11.90;99.90;;;;;;5065007;28;20478;-58
2021/09/25 05:14:16;;;;;;;7.50;6.30;;;11.90;99.90;;;;;;5065355;28;20452;-58
2021/09/25 05:16:43;;;;;;;8.23;5.77;;;11.90;99.90;;;;;;5062331;28;20463;-57
2021/09/25 05:19:10;;;;;;;7.00;5.57;;;11.90;99.90;;;;;;5076129;28;20478;-58
2021/09/25 05:21:37;;;;;;;7.70;5.40;;;12.00;99.90;;;;;;5064403;28;20869;-58
2021/09/25 05:24:07;;;;;;;7.20;5.60;;;12.00;99.90;;;;;;5067436;28;20504;-58
2021/09/25 05:26:35;;;;;;;6.70;5.10;;;12.00;99.90;;;;;;5053353;28;20505;-57
2021/09/25 05:29:02;;;;;;;10.03;5.53;;;12.10;99.90;;;;;;5056834;28;20439;-57
2021/09/25 05:31:30;;;;;;;5.47;4.97;;;12.10;99.90;;;;;;5061294;28;20454;-57
2021/09/25 05:33:57;;;;;;;11.20;6.43;;;12.10;99.90;;;;;;5056763;28;20444;-58
2021/09/25 05:36:24;;;;;;;7.17;6.00;;;12.10;99.90;;;;;;5067887;28;20478;-57
2021/09/25 05:38:51;;;;;;;6.77;5.50;;;12.10;99.90;;;;;;5066984;28;20540;-58
2021/09/25 05:41:20;;;;;;;6.30;5.60;;;12.20;99.90;;;;;;5054416;28;20545;-57
2021/09/25 05:43:50;;;;;;;7.37;5.37;;;12.20;99.90;;;;;;5060637;28;21035;-57
2021/09/25 05:46:18;;;;;;;6.40;5.30;;;12.30;99.90;;;;;;5055669;28;20863;-57
2021/09/25 05:48:47;;;;;;;6.53;4.90;;;12.30;99.90;;;;;;5071730;28;20435;-57
2021/09/25 05:51:15;;;;;;;8.27;5.60;;;12.20;99.90;;;;;;5072719;28;20451;-57
2021/09/25 05:53:42;;;;;;;10.70;5.20;;;12.30;99.90;;;;;;5068209;28;20447;-58
2021/09/25 05:56:09;;;;;;;8.83;5.83;;;12.40;99.90;;;;;;5064924;28;20526;-57
2021/09/25 05:58:37;;;;;;;6.70;5.20;;;12.50;99.90;;;;;;5063045;28;20537;-58
2021/09/25 06:01:04;;;;;;;7.17;5.13;;;12.40;99.90;;;;;;5067718;28;21021;-57
2021/09/25 06:03:31;;;;;;;9.40;5.00;;;12.50;99.90;;;;;;5072441;28;20455;-58
2021/09/25 06:05:58;;;;;;;6.50;5.03;;;12.60;99.90;;;;;;5057425;28;20475;-58
2021/09/25 06:08:25;;;;;;;7.40;5.17;;;12.80;99.90;;;;;;5059462;28;20878;-58
2021/09/25 06:10:52;;;;;;;7.17;5.57;;;13.30;99.90;;;;;;5071995;28;20438;-58
2021/09/25 06:13:19;;;;;;;5.43;4.67;;;14.00;99.90;;;;;;5071879;28;20504;-58
2021/09/25 06:15:48;;;;;;;4.40;4.00;;;14.90;99.90;;;;;;5055756;28;20985;-57
2021/09/25 06:18:15;;;;;;;5.97;3.80;;;15.70;99.90;;;;;;5052131;28;20996;-57
2021/09/25 06:20:42;;;;;;;3.77;3.23;;;16.30;99.90;;;;;;5057245;28;20501;-58
2021/09/25 06:23:09;;;;;;;4.17;3.30;;;16.40;99.90;;;;;;5066513;28;20505;-58
2021/09/25 06:25:36;;;;;;;4.33;3.20;;;16.50;99.90;;;;;;5063428;28;20471;-57
2021/09/25 06:28:04;;;;;;;3.60;3.30;;;16.40;99.90;;;;;;5057146;28;20451;-56
2021/09/25 06:30:31;;;;;;;3.80;3.33;;;15.90;99.90;;;;;;5064348;28;20497;-57
2021/09/25 06:32:59;;;;;;;4.50;3.63;;;15.70;99.90;;;;;;5070241;28;20454;-58
2021/09/25 06:35:26;;;;;;;4.27;3.47;;;15.50;99.90;;;;;;5066908;28;20471;-57
2021/09/25 06:37:53;;;;;;;4.53;3.37;;;15.40;99.90;;;;;;5051764;28;20486;-58
2021/09/25 06:40:23;;;;;;;4.80;3.70;;;15.30;99.90;;;;;;5052307;28;20447;-56
2021/09/25 06:42:50;;;;;;;4.90;4.07;;;15.30;99.90;;;;;;5060990;28;20457;-57
2021/09/25 06:45:17;;;;;;;3.90;3.27;;;15.30;99.90;;;;;;5071762;28;20531;-58
2021/09/25 06:47:44;;;;;;;7.70;4.00;;;15.20;99.90;;;;;;5062192;28;20507;-57
2021/09/25 06:50:13;;;;;;;6.30;3.57;;;15.20;99.90;;;;;;5068641;28;20993;-57
2021/09/25 06:52:41;;;;;;;4.23;3.50;;;15.20;99.90;;;;;;5066073;28;20447;-58
2021/09/25 06:55:09;;;;;;;5.03;4.03;;;15.30;99.90;;;;;;5070650;28;20543;-59
2021/09/25 06:57:36;;;;;;;5.20;3.53;;;15.30;99.90;;;;;;5066841;28;20469;-58
2021/09/25 07:00:03;;;;;;;5.73;3.60;;;15.20;99.90;;;;;;5055071;28;20475;-57
2021/09/25 07:02:31;;;;;;;3.20;2.90;;;15.30;99.90;;;;;;5061767;28;20443;-58
2021/09/25 07:04:58;;;;;;;4.97;3.60;;;15.40;99.90;;;;;;5057794;28;20973;-58
2021/09/25 07:07:26;;;;;;;2.83;2.63;;;15.30;99.90;;;;;;5058792;28;20482;-59
2021/09/25 07:09:53;;;;;;;6.87;3.53;;;15.40;99.90;;;;;;5072787;28;20451;-59
2021/09/25 07:12:20;;;;;;;6.90;3.93;;;15.50;99.90;;;;;;5054508;28;20452;-58
2021/09/25 07:14:47;;;;;;;3.53;3.23;;;15.60;99.90;;;;;;5065498;28;20505;-57
2021/09/25 07:17:14;;;;;;;4.27;3.50;;;15.60;99.90;;;;;;5068288;28;20451;-58
2021/09/25 07:19:41;;;;;;;4.03;3.10;;;15.70;99.90;;;;;;5061514;28;20479;-58
2021/09/25 07:22:08;;;;;;;3.17;2.80;;;15.70;99.90;;;;;;5050877;28;20459;-58
2021/09/25 07:24:37;;;;;;;5.30;3.20;;;15.90;99.90;;;;;;5059142;28;20440;-58
2021/09/25 07:27:04;;;;;;;3.57;3.27;;;16.00;99.90;;;;;;5064976;28;20485;-57
2021/09/25 07:29:31;;;;;;;4.53;2.80;;;16.10;99.90;;;;;;5052703;28;20502;-58
2021/09/25 07:31:58;;;;;;;5.73;3.10;;;16.10;99.90;;;;;;5060317;28;20443;-58
2021/09/25 07:34:26;;;;;;;2.77;2.50;;;16.20;99.90;;;;;;5072573;28;20500;-58
2021/09/25 07:36:53;;;;;;;3.07;2.70;;;16.30;99.90;;;;;;5070909;28;21006;-58
2021/09/25 07:39:20;;;;;;;2.70;2.50;;;16.60;99.90;;;;;;5071309;28;20524;-58
2021/09/25 07:41:49;;;;;;;3.00;2.60;;;16.80;99.90;;;;;;5056574;28;20509;-58
2021/09/25 07:44:16;;;;;;;4.10;2.83;;;17.00;99.90;;;;;;5051247;28;20474;-58
2021/09/25 07:46:42;;;;;;;2.83;2.50;;;17.10;99.90;;;;;;5051381;28;20475;-58
2021/09/25 07:49:09;;;;;;;3.23;2.93;;;17.20;99.90;;;;;;5051376;28;20525;-58
2021/09/25 07:51:36;;;;;;;4.80;2.80;;;17.20;99.90;;;;;;5051037;28;20521;-58
2021/09/25 07:54:03;;;;;;;8.50;2.90;;;17.20;99.90;;;;;;5051230;28;20447;-58
2021/09/25 07:56:30;;;;;;;2.50;2.30;;;17.40;99.90;;;;;;5051072;28;20486;-59
2021/09/25 07:58:59;;;;;;;2.60;2.40;;;17.60;99.90;;;;;;5055309;28;20474;-59
2021/09/25 08:01:26;;;;;;;3.00;2.80;;;17.70;99.90;;;;;;5070158;28;20451;-59
2021/09/25 08:03:53;;;;;;;2.90;2.70;;;17.80;99.90;;;;;;5071259;28;20492;-59
2021/09/25 08:06:20;;;;;;;3.17;2.60;;;18.00;99.90;;;;;;5063070;28;20988;-59
2021/09/25 08:08:47;;;;;;;4.90;2.53;;;18.40;99.90;;;;;;5069836;28;20504;-59
2021/09/25 08:11:14;;;;;;;2.10;2.00;;;18.90;99.90;;;;;;5049988;28;20477;-59
2021/09/25 08:13:41;;;;;;;2.47;2.27;;;19.50;99.90;;;;;;5070033;28;20960;-59
2021/09/25 08:16:09;;;;;;;2.67;2.47;;;19.90;99.90;;;;;;5052208;28;20471;-59
2021/09/25 08:18:36;;;;;;;2.40;2.20;;;20.40;99.90;;;;;;5050962;28;20476;-59
2021/09/25 08:21:03;;;;;;;2.40;2.20;;;21.00;99.90;;;;;;5050682;28;20509;-59
2021/09/25 08:23:30;;;;;;;4.27;2.40;;;21.60;99.90;;;;;;5052058;28;20451;-59
2021/09/25 08:25:57;;;;;;;3.00;2.37;;;22.20;99.90;;;;;;5053501;28;20471;-60
2021/09/25 08:28:24;;;;;;;2.50;2.30;;;22.90;99.90;;;;;;5059688;28;20505;-60
2021/09/25 08:30:52;;;;;;;3.20;2.90;;;23.00;99.90;;;;;;5073462;28;20547;-59
2021/09/25 08:33:20;;;;;;;3.80;2.33;;;23.10;99.90;;;;;;5057780;28;20912;-60
2021/09/25 08:35:47;;;;;;;2.43;2.23;;;23.40;99.90;;;;;;5067008;28;20470;-59
2021/09/25 08:38:14;;;;;;;5.60;2.47;;;23.70;99.90;;;;;;5074338;28;20508;-59
2021/09/25 08:40:41;;;;;;;2.53;2.33;;;23.90;99.90;;;;;;5072107;28;20453;-59
2021/09/25 08:43:08;;;;;;;2.60;2.30;;;23.80;99.90;;;;;;5068510;28;20490;-59
2021/09/25 08:45:35;;;;;;;2.70;2.50;;;24.00;99.90;;;;;;5074130;28;20474;-60
2021/09/25 08:48:03;;;;;;;3.33;2.93;;;24.00;99.90;;;;;;5066765;28;20871;-59
2021/09/25 08:50:31;;;;;;;3.07;2.50;;;24.20;99.90;;;;;;5058249;28;20443;-60
2021/09/25 08:52:58;;;;;;;3.40;2.70;;;24.30;99.90;;;;;;5054000;28;20439;-60
2021/09/25 08:55:27;;;;;;;3.17;2.47;;;24.70;99.90;;;;;;5053756;28;20545;-60
2021/09/25 08:57:54;;;;;;;3.80;2.87;;;25.10;99.90;;;;;;5064784;28;20509;-60
2021/09/25 09:00:40;;;;;;;2.77;2.40;;;24.80;99.90;;;;;;5061163;28;20479;-60
2021/09/25 09:03:19;;;;;;;2.33;2.23;;;23.70;99.90;;;;;;5069738;28;20447;-60
2021/09/25 09:05:48;;;;;;;2.70;2.33;;;23.70;99.90;;;;;;5063199;28;20471;-59
2021/09/25 09:08:15;;;;;;;3.40;2.30;;;24.60;99.90;;;;;;5062251;28;20861;-59
2021/09/25 09:10:42;;;;;;;2.60;2.40;;;24.70;99.90;;;;;;5073345;28;20446;-60
2021/09/25 09:13:09;;;;;;;2.90;2.57;;;25.10;99.90;;;;;;5058261;28;20439;-60
2021/09/25 09:15:39;;;;;;;4.93;4.33;;;25.60;99.90;;;;;;5053722;28;20472;-60
2021/09/25 09:18:13;;;;;;;6.23;5.63;;;25.20;99.90;;;;;;5072008;28;20504;-60
2021/09/25 09:20:41;;;;;;;10.43;8.77;;;24.70;99.90;;;;;;5073283;28;20551;-59
2021/09/25 09:23:18;;;;;;;9.90;8.90;;;23.60;99.90;;;;;;5071231;28;20456;-59
2021/09/25 09:25:45;;;;;;;10.00;8.00;;;22.80;99.90;;;;;;5057836;28;20470;-60
2021/09/25 09:28:12;;;;;;;9.60;7.70;;;22.80;99.90;;;;;;5072647;28;20455;-59
2021/09/25 09:30:49;;;;;;;8.67;5.80;;;23.60;99.90;;;;;;5052893;28;20448;-59
2021/09/25 09:33:31;;;;;;;6.73;6.00;;;24.00;99.90;;;;;;5054435;28;20601;-59
2021/09/25 09:36:16;;;;;;;4.83;4.33;;;24.70;99.90;;;;;;5067020;28;20462;-60
2021/09/25 09:38:49;;;;;;;5.30;4.80;;;25.30;99.90;;;;;;5071360;28;20501;-60
2021/09/25 09:41:18;;;;;;;8.00;6.57;;;24.90;99.90;;;;;;5068294;28;20497;-59
2021/09/25 09:43:45;;;;;;;9.23;6.00;;;23.90;99.90;;;;;;5067808;28;20497;-59
2021/09/25 09:46:13;;;;;;;7.70;6.37;;;24.10;99.90;;;;;;5063985;28;20478;-59
2021/09/25 09:48:40;;;;;;;11.67;9.37;;;24.70;99.90;;;;;;5068955;28;20447;-60
2021/09/25 09:51:07;;;;;;;13.20;11.27;;;25.20;99.90;;;;;;5067413;28;20447;-60
2021/09/25 09:53:46;;;;;;;16.93;11.20;;;25.30;99.90;;;;;;5063536;28;20959;-60
2021/09/25 09:56:23;;;;;;;18.30;14.07;;;25.80;99.90;;;;;;5072495;28;20532;-61
2021/09/25 09:59:01;;;;;;;10.63;7.90;;;26.20;99.90;;;;;;5072731;28;20454;-60
2021/09/25 10:01:29;;;;;;;3.80;3.50;;;26.50;99.90;;;;;;5072494;28;20451;-59
2021/09/25 10:03:58;;;;;;;3.07;2.53;;;26.60;99.90;;;;;;5069327;28;20516;-60
2021/09/25 10:06:25;;;;;;;3.70;3.33;;;26.90;99.90;;;;;;5072120;28;20528;-60
2021/09/25 10:08:54;;;;;;;5.37;2.33;;;27.00;99.90;;;;;;5072276;28;20455;-60
2021/09/25 10:11:23;;;;;;;2.07;1.97;;;26.50;99.90;;;;;;5071719;28;20936;-60
2021/09/25 10:13:52;;;;;;;3.23;2.53;;;26.30;99.90;;;;;;5072226;28;20447;-60
2021/09/25 10:16:19;;;;;;;2.40;2.30;;;26.00;99.90;;;;;;5071273;28;20902;-60
2021/09/25 10:18:46;;;;;;;3.53;2.20;;;26.20;99.90;;;;;;5069921;28;20944;-60
2021/09/25 10:21:15;;;;;;;2.70;2.50;;;26.30;99.90;;;;;;5060701;28;20512;-60
2021/09/25 10:23:48;;;;;;;4.13;3.73;;;26.30;99.90;;;;;;5072346;28;20443;-61
2021/09/25 10:26:18;;;;;;;3.27;2.60;;;26.40;99.90;;;;;;5063832;28;20493;-61
2021/09/25 10:28:55;;;;;;;2.23;2.03;;;26.30;99.90;;;;;;5059337;28;20493;-58
2021/09/25 10:31:22;;;;;;;2.70;2.23;;;25.60;99.90;;;;;;5071955;28;20446;-58
2021/09/25 10:34:16;;;;;;;2.17;2.03;;;26.10;99.90;;;;;;5060960;28;20444;-58
2021/09/25 10:36:48;;;;;;;3.00;2.70;;;26.20;99.90;;;;;;5052069;28;20525;-58
2021/09/25 10:39:29;;;;;;;2.50;2.30;;;26.30;99.90;;;;;;5052014;28;20489;-57
2021/09/25 10:42:06;;;;;;;2.50;2.30;;;26.10;99.90;;;;;;5052626;28;20530;-57
2021/09/25 10:44:39;;;;;;;2.47;2.27;;;25.50;99.90;;;;;;5052080;28;20448;-57
2021/09/25 10:47:12;;;;;;;2.73;2.50;;;24.80;99.90;;;;;;5051140;28;20467;-57
2021/09/25 10:49:57;;;;;;;2.70;2.50;;;24.70;99.90;;;;;;5051879;28;20444;-57
2021/09/25 10:52:40;;;;;;;2.60;2.40;;;24.60;99.90;;;;;;5050088;28;20459;-56
2021/09/25 10:55:27;;;;;;;5.63;2.30;;;24.90;99.90;;;;;;5051686;28;20579;-57
2021/09/25 10:58:30;;;;;;;3.20;2.90;;;25.10;99.90;;;;;;5052310;28;20451;-57
2021/09/25 11:01:03;;;;;;;2.70;2.20;;;25.00;99.90;;;;;;4968693;28;20544;-57
2021/09/25 11:03:59;;;;;;;2.70;2.50;;;25.10;99.90;;;;;;4970190;28;20467;-57
2021/09/25 11:06:31;;;;;;;2.93;2.53;;;25.20;99.90;;;;;;5041451;28;20479;-57
2021/09/25 11:09:00;;;;;;;4.07;3.03;;;25.20;99.90;;;;;;5071438;28;20497;-58
2021/09/25 11:11:41;;;;;;;4.97;4.27;;;25.30;99.90;;;;;;5071203;28;20948;-56
2021/09/25 11:14:15;;;;;;;6.00;5.40;;;25.10;99.90;;;;;;5071693;28;20843;-57
2021/09/25 11:16:54;;;;;;;9.97;6.20;;;24.40;99.90;;;;;;5070447;28;20478;-57
2021/09/25 11:19:51;;;;;;;12.50;8.37;;;23.70;99.90;;;;;;5071299;28;20486;-57
2021/09/25 11:22:30;;;;;;;7.33;6.50;;;23.50;99.90;;;;;;5015215;28;20500;-56
2021/09/25 11:25:00;;;;;;;18.27;12.70;;;23.70;99.90;;;;;;5071239;28;20499;-58
2021/09/25 11:27:29;;;;;;;17.47;13.13;;;23.50;99.90;;;;;;5071363;28;20908;-58
2021/09/25 11:30:16;;;;;;;16.40;13.20;;;23.30;99.90;;;;;;5071521;28;20490;-57
2021/09/25 11:32:46;;;;;;;19.33;13.50;;;23.40;99.90;;;;;;5069764;28;20523;-57
2021/09/25 11:35:17;;;;;;;19.67;13.23;;;23.00;99.90;;;;;;5070702;28;20524;-57
2021/09/25 11:37:58;;;;;;;18.50;14.20;;;22.90;99.90;;;;;;5071539;28;20541;-57
2021/09/25 11:40:28;;;;;;;18.83;13.23;;;22.80;99.90;;;;;;5071251;28;20535;-57
2021/09/25 11:43:01;;;;;;;17.13;12.90;;;22.70;99.90;;;;;;5071042;28;20866;-57
2021/09/25 11:45:35;;;;;;;18.10;13.20;;;22.50;99.90;;;;;;5065364;28;20537;-57
2021/09/25 11:48:03;;;;;;;19.33;13.73;;;22.80;99.90;;;;;;5049619;28;20444;-57
2021/09/25 11:50:33;;;;;;;26.23;18.23;;;22.80;99.90;;;;;;5050194;28;20444;-57
2021/09/25 11:53:03;;;;;;;20.50;14.73;;;23.00;99.90;;;;;;5051345;28;20478;-57
2021/09/25 11:55:32;;;;;;;23.93;18.07;;;23.30;99.90;;;;;;5051134;28;20471;-56
2021/09/25 11:58:01;;;;;;;15.07;12.13;;;23.30;99.90;;;;;;5050359;28;20510;-57
2021/09/25 12:00:32;;;;;;;51.93;33.67;;;23.20;99.90;;;;;;5053623;28;20502;-57
2021/09/25 12:03:01;;;;;;;25.13;17.40;;;23.30;99.90;;;;;;5054959;28;20479;-57
2021/09/25 12:05:31;;;;;;;19.40;13.60;;;23.40;99.90;;;;;;5053971;28;20471;-56
2021/09/25 12:08:00;;;;;;;27.47;18.73;;;23.20;99.90;;;;;;5054692;28;20447;-57
2021/09/25 12:10:30;;;;;;;22.53;15.77;;;23.10;99.90;;;;;;5053681;28;20450;-56
2021/09/25 12:13:01;;;;;;;21.00;16.87;;;23.40;99.90;;;;;;5054349;28;20447;-56
2021/09/25 12:15:31;;;;;;;18.00;13.70;;;23.60;99.90;;;;;;5054681;28;20472;-56
2021/09/25 12:18:21;;;;;;;22.90;15.50;;;23.50;99.90;;;;;;5054378;28;20971;-57
2021/09/25 12:20:52;;;;;;;18.80;14.50;;;23.10;99.90;;;;;;5070025;28;21019;-56
2021/09/25 12:23:21;;;;;;;18.87;13.80;;;22.90;99.90;;;;;;5069893;28;20863;-57
2021/09/25 12:25:48;;;;;;;15.80;11.90;;;23.00;99.90;;;;;;5066409;28;20525;-56
2021/09/25 12:28:45;;;;;;;19.07;13.23;;;22.70;99.90;;;;;;5054337;28;20452;-57
2021/09/25 12:31:18;;;;;;;19.53;15.20;;;22.70;99.90;;;;;;5052110;28;20447;-56
2021/09/25 12:33:54;;;;;;;22.20;15.53;;;23.10;99.90;;;;;;5058504;28;20504;-57
2021/09/25 12:36:22;;;;;;;19.67;14.23;;;23.10;99.90;;;;;;5053946;28;20478;-57
2021/09/25 12:38:50;;;;;;;18.43;13.67;;;23.20;99.90;;;;;;5053755;28;20961;-57
2021/09/25 12:41:20;;;;;;;18.00;13.00;;;23.30;99.90;;;;;;5053570;28;20476;-57
2021/09/25 12:43:49;;;;;;;17.97;13.50;;;23.40;99.90;;;;;;5051892;28;20479;-56
2021/09/25 12:46:20;;;;;;;18.50;13.80;;;23.50;99.90;;;;;;5050904;28;20468;-57
2021/09/25 12:49:07;;;;;;;15.27;11.97;;;23.60;99.90;;;;;;5052426;28;20451;-57
2021/09/25 12:51:36;;;;;;;17.57;13.60;;;23.60;99.90;;;;;;5053174;28;20496;-57